Terminal Aerodrome Forecast
Issued by NWS

Home | Current Version | Previous Version | Text Only | Print | Product List | Glossary On
Versions: 1 2 3 4 5 6 7 8 9 10 11 12 13 14 15 16
490
FTUS45 KABQ 222330
TAFLVS
TAF
KLVS 222330Z 2300/2324 24018G30KT P6SM SCT070 BKN100
     FM230200 23012G18KT P6SM FEW070 BKN120
     FM230800 21018G28KT P6SM SCT100
     FM231400 24032G42KT P6SM SCT080
     FM231900 27035G45KT P6SM SKC
      AMD NOT SKED=

USA.gov is the U.S. government's official web portal to all federal, state and local government web resources and services.